Time;durP1;ratioP1;P1;durP2;ratioP2;P2;SDS_P1;SDS_P2;PMS_P1;PMS_P2;Temp;Humidity;BMP_temperature;BMP_pressure;BME280_temperature;BME280_humidity;BME280_pressure;Samples;Min_cycle;Max_cycle;Signal;HPM_P1;HPM_P2
2022/04/16 00:01:26;;;;;;;7.18;2.33;;;;;;;12.41;78.76;101009.94;5095268;28;20020;-61
2022/04/16 00:03:51;;;;;;;5.63;2.50;;;;;;;12.27;78.10;100988.06;5094359;28;20028;-61
2022/04/16 00:06:17;;;;;;;6.53;2.00;;;;;;;12.28;78.14;101012.03;5081047;28;20024;-61
2022/04/16 00:08:42;;;;;;;6.07;2.50;;;;;;;12.27;77.73;101002.28;5074647;28;20029;-61
2022/04/16 00:11:08;;;;;;;3.83;1.77;;;;;;;12.26;78.10;101005.84;5074618;28;20388;-61
2022/04/16 00:13:34;;;;;;;6.28;2.58;;;;;;;12.25;77.88;101008.56;5088800;28;20020;-61
2022/04/16 00:15:59;;;;;;;4.63;2.30;;;;;;;12.28;78.56;101008.47;5091405;28;20032;-61
2022/04/16 00:18:25;;;;;;;4.68;2.03;;;;;;;12.20;77.49;101006.00;5094959;28;20087;-61
2022/04/16 00:20:51;;;;;;;6.57;1.98;;;;;;;12.19;77.35;101004.22;5094756;28;20036;-61
2022/04/16 00:23:20;;;;;;;3.95;1.75;;;;;;;12.21;77.48;101007.75;5094397;28;20028;-61
2022/04/16 00:25:47;;;;;;;3.83;1.90;;;;;;;12.25;77.23;100996.13;5069893;28;20024;-61
2022/04/16 00:28:12;;;;;;;3.50;1.95;;;;;;;12.20;76.69;100998.00;5074609;28;20028;-61
2022/04/16 00:30:39;;;;;;;4.10;2.22;;;;;;;12.17;76.64;101006.09;5073610;28;20032;-61
2022/04/16 00:33:08;;;;;;;3.38;2.08;;;;;;;12.12;77.20;101007.09;5069836;28;20035;-61
2022/04/16 00:35:34;;;;;;;3.95;1.98;;;;;;;12.08;77.06;101008.94;5071060;28;20021;-61
2022/04/16 00:37:59;;;;;;;3.35;1.83;;;;;;;12.10;77.56;101004.47;5074158;28;20024;-61
2022/04/16 00:40:25;;;;;;;3.05;1.80;;;;;;;12.05;77.48;101003.69;5073063;28;20486;-61
2022/04/16 00:42:51;;;;;;;3.13;1.65;;;;;;;11.98;78.12;101004.72;5073407;28;20044;-61
2022/04/16 00:45:17;;;;;;;4.68;2.00;;;;;;;11.96;77.63;101003.03;5073669;28;20024;-61
2022/04/16 00:47:45;;;;;;;3.25;1.80;;;;;;;11.93;79.04;101003.97;5074034;28;20066;-61
2022/04/16 00:50:11;;;;;;;4.88;2.03;;;;;;;11.87;78.49;100997.00;5073630;28;20634;-61
2022/04/16 00:52:38;;;;;;;5.30;2.05;;;;;;;11.80;77.67;100995.38;5073604;28;20089;-61
2022/04/16 00:55:08;;;;;;;4.32;2.30;;;;;;;11.78;77.46;100998.97;5073830;28;20021;-61
2022/04/16 00:57:34;;;;;;;3.47;1.90;;;;;;;11.80;77.92;100997.16;5058453;28;20031;-61
2022/04/16 01:00:00;;;;;;;4.40;2.20;;;;;;;11.83;78.36;101000.63;5053719;28;20439;-61
2022/04/16 01:02:26;;;;;;;4.15;2.30;;;;;;;11.80;77.87;101005.13;5054030;28;20025;-61
2022/04/16 01:04:52;;;;;;;5.50;2.45;;;;;;;11.69;78.89;101008.06;5053548;28;20082;-61
2022/04/16 01:07:25;;;;;;;3.80;2.05;;;;;;;11.65;79.01;101010.78;5053966;28;20063;-61
2022/04/16 01:09:51;;;;;;;4.15;2.20;;;;;;;11.60;79.00;101007.31;5053653;28;20036;-61
2022/04/16 01:12:16;;;;;;;3.78;2.17;;;;;;;11.56;80.22;101005.66;5056005;28;20036;-61
2022/04/16 01:14:42;;;;;;;4.68;2.40;;;;;;;11.62;79.59;101000.19;5053629;28;20111;-61
2022/04/16 01:17:09;;;;;;;3.47;1.92;;;;;;;11.59;78.75;101005.56;5070572;28;20107;-61
2022/04/16 01:19:38;;;;;;;5.78;2.22;;;;;;;11.53;79.55;101006.56;5093622;28;20093;-61
2022/04/16 01:22:07;;;;;;;3.22;1.80;;;;;;;11.41;79.38;100984.63;5076083;28;20060;-61
2022/04/16 01:24:34;;;;;;;5.55;4.28;;;;;;;11.45;79.74;100997.00;5073319;28;20024;-61
2022/04/16 01:27:00;;;;;;;3.47;2.08;;;;;;;11.45;80.96;100991.69;5072567;28;20039;-61
2022/04/16 01:29:26;;;;;;;3.72;2.20;;;;;;;11.34;81.20;100994.53;5073531;28;20688;-61
2022/04/16 01:31:53;;;;;;;3.88;2.33;;;;;;;11.25;82.07;100997.38;5073092;28;20033;-61
2022/04/16 01:34:21;;;;;;;3.75;2.05;;;;;;;11.24;81.19;101000.06;5073219;28;20517;-60
2022/04/16 01:36:46;;;;;;;3.40;1.85;;;;;;;11.16;82.32;100989.59;5071838;28;20027;-60
2022/04/16 01:39:12;;;;;;;3.67;2.08;;;;;;;11.24;82.45;101008.06;5070668;28;20479;-60
2022/04/16 01:41:37;;;;;;;3.63;2.10;;;;;;;11.20;82.78;101003.72;5071131;28;20095;-60
2022/04/16 01:44:03;;;;;;;3.55;2.22;;;;;;;11.19;82.17;101000.16;5071440;28;20035;-60
2022/04/16 01:46:29;;;;;;;3.70;1.98;;;;;;;11.10;82.38;100987.06;5071494;28;20550;-60
2022/04/16 01:48:55;;;;;;;5.35;2.10;;;;;;;11.16;82.22;101008.22;5071281;28;20056;-60
2022/04/16 01:51:22;;;;;;;3.58;2.08;;;;;;;11.11;82.35;100996.78;5072271;28;20470;-61
2022/04/16 01:53:48;;;;;;;2.58;1.70;;;;;;;11.12;81.90;100995.00;5072835;28;20020;-61
2022/04/16 01:56:14;;;;;;;3.85;2.10;;;;;;;11.16;81.45;100997.56;5072845;28;20074;-60
2022/04/16 01:58:41;;;;;;;3.95;1.95;;;;;;;11.16;81.84;100999.34;5072783;28;20115;-60
2022/04/16 02:01:07;;;;;;;3.72;2.30;;;;;;;11.09;81.46;101003.91;5072368;28;20020;-60
2022/04/16 02:03:33;;;;;;;4.63;2.90;;;;;;;11.04;81.05;101003.13;5072791;28;20033;-61
2022/04/16 02:05:59;;;;;;;3.72;2.20;;;;;;;10.96;82.09;101006.81;5072706;28;20091;-61
2022/04/16 02:08:25;;;;;;;4.05;2.22;;;;;;;10.99;82.14;101002.31;5072522;28;20036;-61
2022/04/16 02:10:50;;;;;;;7.43;2.35;;;;;;;11.04;81.64;100997.78;5069893;28;20107;-61
2022/04/16 02:13:16;;;;;;;5.65;2.22;;;;;;;10.97;82.28;100997.94;5055479;28;20052;-60
2022/04/16 02:15:42;;;;;;;4.75;2.58;;;;;;;10.91;82.10;100992.72;5052377;28;20032;-61
2022/04/16 02:18:07;;;;;;;5.28;2.42;;;;;;;10.90;81.44;100990.97;5085937;28;20084;-61
2022/04/16 02:20:35;;;;;;;6.72;2.28;;;;;;;10.91;81.41;100995.38;5092337;28;20088;-61
2022/04/16 02:23:01;;;;;;;4.15;2.00;;;;;;;10.85;81.59;100995.50;5092421;28;20085;-61
2022/04/16 02:25:27;;;;;;;4.25;2.03;;;;;;;10.85;81.69;100998.16;5078657;28;20033;-61
2022/04/16 02:27:52;;;;;;;4.20;2.60;;;;;;;10.86;82.00;100989.25;5072232;28;20522;-60
2022/04/16 02:30:22;;;;;;;2.25;1.83;;;;;;;10.83;81.94;100997.31;5070303;28;20025;-61
2022/04/16 02:32:54;;;;;;;3.25;1.95;;;;;;;10.84;80.77;100997.28;5071734;28;20039;-61
2022/04/16 02:35:21;;;;;;;2.88;1.88;;;;;;;10.87;81.51;100991.94;5071772;28;20024;-61
2022/04/16 02:37:47;;;;;;;3.47;1.90;;;;;;;10.83;80.13;100998.19;5070615;28;20039;-61
2022/04/16 02:40:13;;;;;;;3.50;1.90;;;;;;;10.77;81.13;100998.31;5064491;28;20021;-61
2022/04/16 02:42:41;;;;;;;3.00;1.58;;;;;;;10.77;81.26;101000.09;5071346;28;20028;-61
2022/04/16 02:47:53;;;;;;;5.05;2.00;;;;;;;10.55;81.77;100984.50;5072249;28;20436;-60
2022/04/16 02:50:20;;;;;;;4.70;2.22;;;;;;;10.56;81.33;101001.31;5071679;28;20024;-60
2022/04/16 02:52:48;;;;;;;3.60;2.05;;;;;;;10.51;81.65;100998.75;5071972;28;20029;-61
2022/04/16 02:55:17;;;;;;;4.60;1.90;;;;;;;10.52;81.91;101005.84;5071765;28;20103;-61
2022/04/16 02:57:46;;;;;;;2.92;1.75;;;;;;;10.54;82.00;101006.69;5071716;28;20020;-60
2022/04/16 03:00:13;;;;;;;3.78;1.90;;;;;;;10.40;81.85;100999.81;5071569;28;20498;-61
2022/04/16 03:02:39;;;;;;;3.40;1.85;;;;;;;10.47;82.13;101002.38;5055226;28;20053;-61
2022/04/16 03:05:06;;;;;;;5.90;1.90;;;;;;;10.47;82.81;101013.03;5051768;28;20063;-61
2022/04/16 03:07:33;;;;;;;3.97;2.13;;;;;;;10.42;82.41;101009.56;5051696;28;20021;-61
2022/04/16 03:09:58;;;;;;;2.47;1.90;;;;;;;10.37;81.90;101000.78;5051147;28;20055;-61
2022/04/16 03:12:24;;;;;;;3.55;1.70;;;;;;;10.39;82.35;101014.03;5051785;28;20496;-61
2022/04/16 03:17:33;;;;;;;;;;;;;;;10.33;82.44;101014.13;5078869;28;20426;-60
2022/04/16 03:20:09;;;;;;;3.25;1.70;;;;;;;10.33;82.53;101025.66;5091342;28;19908;-61
2022/04/16 03:22:35;;;;;;;2.75;1.90;;;;;;;10.32;82.12;101018.59;5093560;28;20076;-61
2022/04/16 03:25:04;;;;;;;3.55;2.08;;;;;;;10.31;82.92;101016.81;5095873;28;20115;-60
2022/04/16 03:27:30;;;;;;;3.60;1.98;;;;;;;10.28;83.06;101016.00;5077837;28;20464;-61
2022/04/16 03:29:55;;;;;;;2.75;1.85;;;;;;;10.27;82.58;101015.13;5075334;28;20058;-61
2022/04/16 03:32:21;;;;;;;3.10;1.85;;;;;;;10.20;83.28;101018.75;5075731;28;20028;-61
2022/04/16 03:34:46;;;;;;;3.88;2.10;;;;;;;10.15;83.05;101009.97;5075447;28;20028;-61
2022/04/16 03:37:12;;;;;;;3.95;2.10;;;;;;;10.17;83.27;101013.50;5075340;28;20028;-61
2022/04/16 03:39:37;;;;;;;5.85;2.22;;;;;;;10.11;83.31;101015.38;5075447;28;20368;-60
2022/04/16 03:42:03;;;;;;;3.47;1.58;;;;;;;10.07;83.72;101006.53;5075504;28;20038;-60
2022/04/16 03:44:29;;;;;;;3.67;1.95;;;;;;;10.01;83.70;101011.94;5075112;28;20043;-60
2022/04/16 03:46:55;;;;;;;3.15;1.88;;;;;;;10.10;83.87;101003.84;5074929;28;20071;-60
2022/04/16 03:49:21;;;;;;;3.47;1.90;;;;;;;10.05;83.98;100995.03;5075002;28;20107;-60
2022/04/16 03:51:46;;;;;;;3.95;2.08;;;;;;;10.14;83.13;101008.22;5073854;28;20029;-60
2022/04/16 04:02:24;;;;;;;3.75;2.13;;;;;;;10.04;84.59;101011.88;5075178;28;19987;-61
2022/04/16 04:04:50;;;;;;;3.83;2.08;;;;;;;10.07;85.01;101011.84;5074700;28;20107;-61
2022/04/16 04:07:15;;;;;;;4.93;2.75;;;;;;;10.07;84.20;101010.94;5071460;28;20028;-60
2022/04/16 04:09:41;;;;;;;3.67;2.30;;;;;;;9.93;84.15;101016.50;5074678;28;20094;-60
2022/04/16 04:12:13;;;;;;;4.35;2.53;;;;;;;9.87;84.59;101023.63;5075029;28;20107;-60
2022/04/16 04:14:42;;;;;;;4.93;2.90;;;;;;;9.86;85.33;101022.78;5074353;28;20020;-61
2022/04/16 04:17:09;;;;;;;6.75;3.03;;;;;;;9.87;85.09;101032.50;5083407;28;20395;-60
2022/04/16 04:19:36;;;;;;;4.38;2.85;;;;;;;9.90;85.01;101035.09;5094759;28;20031;-60
2022/04/16 04:22:07;;;;;;;6.35;3.35;;;;;;;9.91;85.15;101036.00;5078310;28;20044;-60
2022/04/16 04:24:32;;;;;;;7.68;3.17;;;;;;;9.93;85.37;101040.41;5056957;28;20108;-60
2022/04/16 04:26:59;;;;;;;4.95;2.72;;;;;;;9.98;84.77;101049.16;5067869;28;20462;-60
2022/04/16 04:29:26;;;;;;;3.13;2.08;;;;;;;9.87;84.15;101039.56;5074422;28;20429;-61
2022/04/16 04:31:52;;;;;;;4.78;2.25;;;;;;;9.92;84.27;101043.06;5074331;28;20036;-61
2022/04/16 04:34:17;;;;;;;3.25;1.65;;;;;;;9.90;84.52;101051.06;5073551;28;20442;-61
2022/04/16 04:36:43;;;;;;;3.28;1.88;;;;;;;9.92;84.58;101056.34;5074498;28;20221;-61
2022/04/16 04:39:09;;;;;;;4.15;2.03;;;;;;;9.77;84.44;101052.13;5074289;28;20506;-60
2022/04/16 04:41:34;;;;;;;3.08;2.10;;;;;;;9.80;85.26;101059.19;5074447;28;20035;-61
2022/04/16 04:44:00;;;;;;;4.13;2.45;;;;;;;9.70;86.05;101053.13;5073935;28;20036;-61
2022/04/16 04:46:25;;;;;;;3.10;2.10;;;;;;;9.71;85.80;101046.00;5074555;28;20107;-61
2022/04/16 04:48:50;;;;;;;3.20;2.25;;;;;;;9.75;85.36;101056.56;5074080;28;20025;-61
2022/04/16 04:51:16;;;;;;;4.28;2.35;;;;;;;9.75;85.62;101056.56;5073472;28;20054;-61
2022/04/16 04:53:42;;;;;;;3.13;1.70;;;;;;;9.79;85.06;101060.94;5074032;28;20097;-61
2022/04/16 04:56:08;;;;;;;2.90;1.90;;;;;;;9.80;85.10;101059.19;5073884;28;20495;-61
2022/04/16 04:58:33;;;;;;;3.75;2.10;;;;;;;9.84;84.38;101074.16;5064625;28;20025;-61
2022/04/16 05:00:58;;;;;;;3.17;1.92;;;;;;;9.75;85.35;101075.16;5053879;28;20431;-61
2022/04/16 05:03:24;;;;;;;3.80;2.03;;;;;;;9.71;85.68;101075.22;5053774;28;20025;-60
2022/04/16 05:05:49;;;;;;;4.32;2.47;;;;;;;9.80;86.10;101070.66;5053658;28;20033;-61
2022/04/16 05:08:15;;;;;;;5.60;2.30;;;;;;;9.82;86.11;101066.22;5053944;28;20025;-61
2022/04/16 05:10:40;;;;;;;2.97;1.92;;;;;;;9.80;85.83;101078.63;5055929;28;20048;-61
2022/04/16 05:13:06;;;;;;;3.38;2.00;;;;;;;9.88;86.02;101070.59;5053623;28;20037;-61
2022/04/16 05:15:31;;;;;;;4.93;3.33;;;;;;;9.88;85.33;101079.44;5053752;28;20131;-61
2022/04/16 05:17:57;;;;;;;5.53;3.22;;;;;;;9.99;85.80;101077.53;5084238;28;20039;-61
2022/04/16 05:20:22;;;;;;;5.10;2.42;;;;;;;10.11;84.43;101080.06;5092125;28;20141;-61
2022/04/16 05:22:48;;;;;;;3.28;2.08;;;;;;;10.40;84.05;101075.19;5091777;28;20028;-61
2022/04/16 05:25:13;;;;;;;5.35;2.47;;;;;;;10.97;81.60;101078.66;5091758;28;20161;-61
2022/04/16 05:27:39;;;;;;;5.57;2.38;;;;;;;11.59;77.92;101078.41;5072459;28;20043;-61
2022/04/16 05:30:22;;;;;;;4.20;2.15;;;;;;;11.80;74.79;101079.78;5071433;28;20024;-60
2022/04/16 05:32:50;;;;;;;3.90;2.13;;;;;;;11.95;75.25;101090.13;5071526;28;20385;-61
2022/04/16 05:35:16;;;;;;;5.53;2.35;;;;;;;12.21;72.97;101081.59;5072293;28;20033;-61
2022/04/16 05:37:42;;;;;;;3.97;2.03;;;;;;;12.20;72.94;101077.13;5073329;28;20371;-61
2022/04/16 05:40:09;;;;;;;4.57;2.15;;;;;;;12.13;73.89;101087.06;5072938;28;20407;-61
2022/04/16 05:42:42;;;;;;;6.10;2.40;;;;;;;12.01;73.37;101092.66;5073440;28;20051;-61
2022/04/16 05:45:08;;;;;;;4.82;2.10;;;;;;;12.01;73.74;101076.66;5072268;28;20480;-61
2022/04/16 05:47:34;;;;;;;2.72;1.73;;;;;;;12.00;74.09;101096.25;5072647;28;20028;-61
2022/04/16 05:49:59;;;;;;;2.60;1.80;;;;;;;12.09;74.09;101104.06;5072483;28;20030;-61
2022/04/16 05:52:25;;;;;;;3.97;1.83;;;;;;;12.29;74.00;101103.63;5072429;28;20300;-61
2022/04/16 05:54:52;;;;;;;3.25;1.95;;;;;;;12.60;72.78;101110.88;5072754;28;20024;-61
2022/04/16 05:57:19;;;;;;;4.03;1.88;;;;;;;12.84;71.83;101112.97;5072790;28;20111;-61
2022/04/16 05:59:44;;;;;;;3.50;2.10;;;;;;;13.84;67.06;101105.84;5072731;28;20409;-61
2022/04/16 06:02:10;;;;;;;3.40;1.80;;;;;;;15.59;59.12;101106.47;5072831;28;20028;-61
2022/04/16 06:04:36;;;;;;;3.90;2.20;;;;;;;15.79;55.36;101103.94;5072610;28;20090;-61
2022/04/16 06:07:01;;;;;;;3.58;2.13;;;;;;;15.75;55.28;101107.66;5072479;28;20029;-61
2022/04/16 06:09:28;;;;;;;3.10;1.80;;;;;;;16.25;54.73;101113.81;5072297;28;20025;-61
2022/04/16 06:12:00;;;;;;;4.60;2.03;;;;;;;16.52;52.37;101106.53;5061496;28;20365;-61
2022/04/16 06:14:26;;;;;;;4.55;2.45;;;;;;;16.54;53.40;101121.66;5052620;28;20392;-61
2022/04/16 06:16:51;;;;;;;4.57;2.15;;;;;;;16.53;53.53;101129.78;5064980;28;20028;-61
2022/04/16 06:19:17;;;;;;;4.00;2.08;;;;;;;15.96;54.70;101127.47;5092410;28;20085;-61
2022/04/16 06:21:42;;;;;;;3.78;1.90;;;;;;;15.95;55.61;101130.22;5092332;28;20110;-61
2022/04/16 06:24:07;;;;;;;3.50;1.60;;;;;;;16.44;54.29;101122.06;5092620;28;20103;-62
2022/04/16 06:26:33;;;;;;;4.65;1.92;;;;;;;17.94;50.98;101133.66;5080659;28;20021;-62
2022/04/16 06:28:58;;;;;;;4.88;1.83;;;;;;;18.55;48.80;101132.56;5054542;28;20519;-62
2022/04/16 06:31:23;;;;;;;4.25;1.98;;;;;;;18.03;49.12;101141.28;5069882;28;20157;-62
2022/04/16 06:33:49;;;;;;;3.72;1.70;;;;;;;17.57;50.59;101144.25;5072150;28;20236;-62
2022/04/16 06:36:14;;;;;;;3.13;1.55;;;;;;;18.52;49.29;101137.25;5071912;28;20032;-62
2022/04/16 06:38:40;;;;;;;3.53;2.00;;;;;;;20.18;46.45;101135.88;5071936;28;20028;-61
2022/04/16 06:41:05;;;;;;;3.38;1.95;;;;;;;20.60;43.55;101133.53;5072045;28;20016;-62
2022/04/16 06:43:30;;;;;;;3.55;1.90;;;;;;;19.51;45.58;101132.28;5069102;28;20028;-61
2022/04/16 06:45:56;;;;;;;3.00;1.88;;;;;;;18.79;47.04;101133.22;5070246;28;20035;-62
2022/04/16 06:48:21;;;;;;;3.47;1.98;;;;;;;18.49;48.45;101140.06;5046462;28;20051;-62
2022/04/16 06:50:47;;;;;;;3.53;1.80;;;;;;;18.22;49.07;101145.75;5065753;28;20032;-62
2022/04/16 06:53:12;;;;;;;3.40;1.77;;;;;;;18.04;49.01;101149.28;5053814;28;20029;-62
2022/04/16 06:55:37;;;;;;;3.97;2.38;;;;;;;18.36;48.32;101151.41;5065858;28;20108;-62
2022/04/16 06:58:03;;;;;;;4.68;2.47;;;;;;;18.82;47.51;101143.84;5054193;28;20025;-62
2022/04/16 07:00:29;;;;;;;4.90;2.25;;;;;;;19.50;47.33;101152.97;5051165;28;20391;-62
2022/04/16 07:02:55;;;;;;;3.90;2.03;;;;;;;19.86;45.70;101152.03;5050547;28;20127;-62
2022/04/16 07:05:20;;;;;;;3.97;1.95;;;;;;;19.51;46.06;101148.47;5060235;28;20534;-61
2022/04/16 07:07:46;;;;;;;3.65;1.90;;;;;;;20.36;45.39;101139.44;5071097;28;20017;-62
2022/04/16 07:10:11;;;;;;;3.22;1.80;;;;;;;20.21;44.72;101146.56;5071563;28;20025;-62
2022/04/16 07:12:37;;;;;;;4.88;2.15;;;;;;;19.83;45.43;101145.00;5070762;28;20046;-62
2022/04/16 07:15:03;;;;;;;4.00;2.00;;;;;;;19.76;46.03;101148.94;5051868;28;20017;-62
2022/04/16 07:17:29;;;;;;;3.10;1.95;;;;;;;19.91;45.13;101142.75;5068659;28;20472;-62
2022/04/16 07:19:54;;;;;;;3.60;1.90;;;;;;;20.00;46.68;101150.34;5070917;28;20032;-62
2022/04/16 07:22:20;;;;;;;2.72;1.77;;;;;;;20.05;45.52;101137.47;5091266;28;20424;-62
2022/04/16 07:24:48;;;;;;;3.97;2.10;;;;;;;20.09;45.75;101147.16;5089193;28;20103;-62
2022/04/16 07:27:14;;;;;;;3.40;1.80;;;;;;;20.23;46.68;101149.16;5088625;28;20027;-62
2022/04/16 07:29:39;;;;;;;3.50;1.92;;;;;;;20.33;45.06;101150.41;5091356;28;20035;-62
2022/04/16 07:32:05;;;;;;;6.57;1.95;;;;;;;20.15;44.72;101151.38;5090513;28;20370;-62
2022/04/16 07:34:31;;;;;;;8.60;1.95;;;;;;;20.58;46.37;101156.19;5090772;28;20036;-62
2022/04/16 07:36:56;;;;;;;9.93;3.58;;;;;;;20.74;43.97;101155.25;5089299;28;20078;-62
2022/04/16 07:39:22;;;;;;;2.50;1.42;;;;;;;20.56;42.72;101175.22;5085246;28;20024;-62
2022/04/16 07:41:49;;;;;;;1.52;0.82;;;;;;;19.74;42.32;101161.66;5072008;28;20021;-61
2022/04/16 07:44:15;;;;;;;1.77;1.08;;;;;;;19.62;41.65;101163.16;5090637;28;20468;-62
2022/04/16 07:46:40;;;;;;;2.88;1.55;;;;;;;19.15;43.98;101166.47;5087681;28;20028;-62
2022/04/16 07:49:06;;;;;;;2.72;1.45;;;;;;;18.70;46.73;101174.13;5087417;28;20032;-62
2022/04/16 07:51:31;;;;;;;3.65;2.03;;;;;;;18.68;48.78;101181.41;5069784;28;20074;-62
2022/04/16 07:53:57;;;;;;;4.03;2.05;;;;;;;19.05;47.48;101175.97;5079624;28;20115;-62
2022/04/16 07:56:23;;;;;;;3.95;2.08;;;;;;;19.10;48.91;101168.53;5083927;28;20032;-62
2022/04/16 07:58:50;;;;;;;4.13;2.20;;;;;;;19.13;49.20;101176.47;5085005;28;20637;-62
2022/04/16 08:01:16;;;;;;;4.65;1.98;;;;;;;19.42;47.24;101181.34;5088813;28;20059;-62
2022/04/16 08:03:41;;;;;;;4.15;1.92;;;;;;;19.90;47.58;101178.78;5089566;28;20139;-63
2022/04/16 08:06:07;;;;;;;3.13;1.60;;;;;;;20.18;45.22;101181.81;5090286;28;20035;-62
2022/04/16 08:08:32;;;;;;;3.70;1.50;;;;;;;20.06;46.33;101185.16;5084745;28;20081;-62
2022/04/16 08:10:58;;;;;;;2.60;1.50;;;;;;;20.11;43.65;101193.91;5094871;28;20093;-63
2022/04/16 08:13:23;;;;;;;2.38;1.10;;;;;;;20.15;43.71;101198.19;5086520;28;20032;-63
2022/04/16 08:15:49;;;;;;;3.33;1.33;;;;;;;19.56;43.73;101200.41;5090665;28;20027;-62
2022/04/16 08:18:15;;;;;;;4.00;1.25;;;;;;;19.30;45.19;101196.31;5075130;28;20040;-62
2022/04/16 08:20:41;;;;;;;2.78;1.50;;;;;;;19.23;44.39;101208.31;5092118;28;20043;-62
2022/04/16 08:23:07;;;;;;;2.95;1.42;;;;;;;18.87;44.25;101206.50;5091421;28;20036;-62
2022/04/16 08:27:59;;;;;;;2.90;1.20;;;;;;;18.45;46.53;101216.63;5091980;28;20028;-62
2022/04/16 08:30:25;;;;;;;2.72;1.30;;;;;;;18.30;46.67;101216.31;5086354;28;20023;-62
2022/04/16 08:32:51;;;;;;;4.07;1.58;;;;;;;18.23;47.14;101222.06;5073402;28;20395;-62
2022/04/16 08:35:18;;;;;;;4.25;1.80;;;;;;;18.16;49.22;101221.47;5076133;28;20020;-62
2022/04/16 08:37:45;;;;;;;2.97;1.52;;;;;;;18.05;47.51;101223.78;5080001;28;20389;-62
2022/04/16 08:40:12;;;;;;;2.83;1.20;;;;;;;18.08;44.92;101231.72;5092409;28;20111;-62
2022/04/16 08:42:40;;;;;;;3.35;0.95;;;;;;;18.50;43.83;101225.38;5091156;28;20750;-62
2022/04/16 08:45:07;;;;;;;2.42;1.20;;;;;;;18.26;46.51;101222.81;5094027;28;20024;-62
2022/04/16 08:47:33;;;;;;;2.38;1.25;;;;;;;17.89;43.66;101222.66;5076920;28;20513;-62
2022/04/16 08:49:59;;;;;;;4.72;1.65;;;;;;;18.06;44.47;101230.00;5082851;28;20020;-62
2022/04/16 08:52:30;;;;;;;2.95;1.08;;;;;;;17.99;45.31;101226.72;5093846;28;20106;-62
2022/04/16 08:54:57;;;;;;;2.92;1.42;;;;;;;17.84;44.67;101227.38;5094172;28;20074;-62
2022/04/16 08:57:22;;;;;;;2.50;1.27;;;;;;;18.17;43.38;101233.13;5093595;28;20027;-62
2022/04/16 08:59:50;;;;;;;3.63;1.23;;;;;;;17.78;43.31;101230.34;5093053;28;20036;-62
2022/04/16 09:02:16;;;;;;;2.35;1.40;;;;;;;17.72;45.07;101227.91;5092672;28;20332;-62
2022/04/16 09:04:41;;;;;;;3.03;1.25;;;;;;;17.73;44.08;101232.34;5094048;28;20020;-62
2022/04/16 09:07:06;;;;;;;3.08;1.48;;;;;;;17.74;43.78;101226.00;5092967;28;20039;-62
2022/04/16 09:09:32;;;;;;;3.20;1.45;;;;;;;17.95;46.08;101233.19;5090907;28;20383;-62
2022/04/16 09:11:57;;;;;;;3.22;1.55;;;;;;;17.86;46.55;101221.91;5085896;28;20028;-62
2022/04/16 09:14:33;;;;;;;2.60;1.50;;;;;;;17.62;45.43;101222.97;5074298;28;20016;-62
2022/04/16 09:16:59;;;;;;;3.85;1.50;;;;;;;17.49;46.78;101238.78;5078399;28;20023;-62
2022/04/16 09:19:28;;;;;;;4.38;1.50;;;;;;;17.48;46.65;101237.00;5091865;28;20024;-62
2022/04/16 09:21:54;;;;;;;3.13;1.50;;;;;;;18.10;44.75;101232.50;5091674;28;20089;-62
2022/04/16 09:24:19;;;;;;;5.40;1.40;;;;;;;19.62;46.93;101224.38;5089833;28;20028;-62
2022/04/16 09:26:48;;;;;;;3.40;1.30;;;;;;;20.09;40.91;101224.63;5089878;28;20102;-62
2022/04/16 09:29:15;;;;;;;5.10;1.77;;;;;;;19.96;42.96;101221.72;5091526;28;20114;-62
2022/04/16 09:31:45;;;;;;;3.03;1.40;;;;;;;19.76;43.77;101229.06;5092077;28;20052;-62
2022/04/16 09:34:18;;;;;;;3.45;1.65;;;;;;;19.73;42.64;101222.03;5086909;28;20032;-62
2022/04/16 09:36:44;;;;;;;3.90;1.90;;;;;;;19.50;43.39;101211.50;5071616;28;20028;-62
2022/04/16 09:39:11;;;;;;;3.45;1.88;;;;;;;19.48;45.36;101202.59;5072223;28;20035;-62
2022/04/16 09:41:38;;;;;;;3.85;1.85;;;;;;;19.16;46.77;101216.81;5083264;28;20523;-62
2022/04/16 09:44:15;;;;;;;2.92;1.50;;;;;;;19.51;45.21;101214.13;5091434;28;20054;-62
2022/04/16 09:46:44;;;;;;;3.58;1.65;;;;;;;19.18;43.24;101214.88;5074634;28;20028;-62
2022/04/16 09:49:12;;;;;;;4.70;1.98;;;;;;;18.72;44.39;101226.09;5084920;28;20020;-62
2022/04/16 09:51:40;;;;;;;12.70;3.65;;;;;;;19.21;44.21;101217.41;5092273;28;20067;-62
2022/04/16 09:54:06;;;;;;;3.55;1.65;;;;;;;19.07;43.03;101226.22;5092435;28;20024;-62
2022/04/16 09:56:34;;;;;;;3.05;1.50;;;;;;;19.56;43.99;101216.59;5091540;28;20051;-62
2022/04/16 09:59:08;;;;;;;4.55;1.55;;;;;;;19.81;42.10;101222.50;5089440;28;20189;-62
2022/04/16 10:01:38;;;;;;;3.90;1.88;;;;;;;20.47;43.84;101226.22;5092710;28;20051;-62
2022/04/16 10:04:06;;;;;;;4.00;1.67;;;;;;;21.12;41.89;101220.75;5093081;28;20028;-63
2022/04/16 10:06:32;;;;;;;3.10;1.45;;;;;;;20.73;40.94;101213.03;5091924;28;20024;-62
2022/04/16 10:09:00;;;;;;;3.90;1.63;;;;;;;19.89;42.08;101214.88;5092610;28;20081;-62
2022/04/16 10:12:59;;;;;;;3.30;1.70;;;;;;;19.24;43.74;101225.38;5091749;28;20056;-62
2022/04/16 10:15:00;;;;;;;6.43;1.70;;;;;;;19.90;45.05;101216.59;5072234;28;20032;-63
2022/04/16 10:17:46;;;;;;;3.97;1.88;;;;;;;21.09;43.91;101217.38;5074640;28;20017;-62
2022/04/16 10:20:16;;;;;;;3.45;1.45;;;;;;;21.75;42.04;101218.84;5071081;28;20063;-62
2022/04/16 10:22:58;;;;;;;3.15;1.92;;;;;;;21.83;40.29;101227.41;5072034;28;20060;-63
2022/04/16 10:25:27;;;;;;;4.05;1.77;;;;;;;22.39;39.85;101224.00;5072651;28;20483;-63
2022/04/16 10:28:00;;;;;;;4.30;1.50;;;;;;;23.12;40.34;101224.66;5088435;28;20023;-63
2022/04/16 10:30:42;;;;;;;5.80;1.50;;;;;;;22.97;38.64;101225.66;5083144;28;20077;-63
2022/04/16 10:33:27;;;;;;;2.55;1.63;;;;;;;23.03;37.87;101241.53;5091992;28;20043;-64
2022/04/16 10:35:56;;;;;;;2.72;1.27;;;;;;;23.10;38.07;101226.59;5075402;28;20487;-64
2022/04/16 10:38:33;;;;;;;4.13;1.85;;;;;;;23.12;38.67;101223.78;5092036;28;20391;-64
2022/04/16 10:41:00;;;;;;;3.75;1.67;;;;;;;22.64;38.20;101244.06;5090128;28;20532;-64
2022/04/16 10:43:31;;;;;;;3.78;1.80;;;;;;;22.12;39.17;101235.53;5088739;28;20027;-63
2022/04/16 10:46:00;;;;;;;3.42;1.50;;;;;;;22.16;39.71;101231.69;5091381;28;20035;-64
2022/04/16 10:48:28;;;;;;;4.78;1.40;;;;;;;22.65;40.94;101225.97;5091201;28;20033;-63
2022/04/16 10:50:56;;;;;;;3.30;1.50;;;;;;;23.58;39.22;101208.06;5089612;28;20028;-64
2022/04/16 10:53:33;;;;;;;3.45;1.50;;;;;;;24.13;37.18;101223.25;5089340;28;20063;-64
2022/04/16 10:56:12;;;;;;;4.55;1.20;;;;;;;23.72;36.39;101221.59;5084501;28;20584;-63
2022/04/16 10:58:41;;;;;;;5.13;2.08;;;;;;;22.44;35.83;101238.13;5084108;28;20475;-63
2022/04/16 11:01:12;;;;;;;3.90;1.90;;;;;;;21.65;39.32;101236.59;5070023;28;20024;-63
2022/04/16 11:03:47;;;;;;;2.85;1.42;;;;;;;21.90;38.94;101228.81;5071821;28;20024;-63
2022/04/16 11:06:14;;;;;;;8.55;3.10;;;;;;;22.32;40.65;101231.63;5088815;28;20443;-64
2022/04/16 11:08:41;;;;;;;7.97;3.88;;;;;;;22.30;39.83;101224.53;5072047;28;20025;-63
2022/04/16 11:11:08;;;;;;;11.75;2.85;;;;;;;21.95;39.90;101221.28;5072483;28;20024;-63
2022/04/16 11:13:35;;;;;;;8.10;2.63;;;;;;;21.50;42.53;101213.16;5091870;28;20028;-63
2022/04/16 11:16:01;;;;;;;5.20;2.85;;;;;;;22.32;40.06;101219.91;5091557;28;20494;-63
2022/04/16 11:18:44;;;;;;;7.82;2.03;;;;;;;22.85;38.12;101217.44;5091783;28;20027;-63
2022/04/16 11:21:13;;;;;;;4.43;1.97;;;;;;;22.43;37.60;101218.28;5089235;28;20097;-63
2022/04/16 11:23:46;;;;;;;3.63;1.92;;;;;;;21.50;39.21;101213.16;5067922;28;20496;-63
2022/04/16 11:34:28;;;;;;;4.32;2.28;;;;;;;21.96;41.76;101210.34;5071716;28;20042;-63
2022/04/16 11:36:54;;;;;;;3.15;1.60;;;;;;;21.97;39.33;101203.09;5067859;28;20025;-63
2022/04/16 11:39:21;;;;;;;5.10;1.90;;;;;;;22.66;40.52;101204.16;5053398;28;20028;-64
2022/04/16 11:41:49;;;;;;;3.60;1.60;;;;;;;23.38;36.77;101196.69;5056698;28;20031;-64
2022/04/16 11:44:14;;;;;;;2.60;1.40;;;;;;;22.97;35.69;101208.50;5069707;28;20493;-64
2022/04/16 11:46:41;;;;;;;2.53;1.50;;;;;;;23.37;38.01;101205.84;5075491;28;20056;-64
2022/04/16 11:49:07;;;;;;;5.65;1.80;;;;;;;23.78;35.92;101213.03;5076422;28;20031;-63
2022/04/16 11:51:38;;;;;;;4.03;1.90;;;;;;;23.71;35.48;101203.53;5055030;28;20025;-63